createdAt,value
2023-02-15T00:02:04.700Z,15.20
2023-02-15T00:04:46.436Z,14.87
2023-02-15T00:07:20.374Z,15.33
2023-02-15T00:09:48.732Z,14.97
2023-02-15T00:12:17.587Z,15.43
2023-02-15T00:14:45.729Z,16.00
2023-02-15T00:17:13.538Z,16.03
2023-02-15T00:19:41.998Z,15.03
2023-02-15T00:22:10.459Z,16.23
2023-02-15T00:24:39.556Z,14.87
2023-02-15T00:27:07.565Z,16.53
2023-02-15T00:29:35.402Z,15.27
2023-02-15T00:32:03.195Z,16.13
2023-02-15T00:34:31.034Z,15.33
2023-02-15T00:36:59.133Z,14.80
2023-02-15T00:39:28.215Z,16.43
2023-02-15T00:41:57.392Z,17.40
2023-02-15T00:44:25.152Z,17.10
2023-02-15T00:46:52.947Z,15.87
2023-02-15T00:49:22.089Z,15.50
2023-02-15T00:51:49.872Z,16.53
2023-02-15T00:54:17.676Z,15.90
2023-02-15T00:56:45.454Z,16.30
2023-02-15T00:59:15.180Z,16.77
2023-02-15T01:01:43.038Z,15.93
2023-02-15T01:04:10.843Z,16.43
2023-02-15T01:06:38.582Z,16.83
2023-02-15T01:09:06.466Z,16.87
2023-02-15T01:11:34.270Z,16.87
2023-02-15T01:14:04.109Z,17.23
2023-02-15T01:16:33.331Z,16.23
2023-02-15T01:19:01.096Z,16.10
2023-02-15T01:21:28.850Z,17.50
2023-02-15T01:23:56.608Z,17.47
2023-02-15T01:26:24.418Z,17.07
2023-02-15T01:28:52.189Z,15.83
2023-02-15T01:31:22.936Z,17.23
2023-02-15T01:33:52.111Z,17.73
2023-02-15T01:36:20.041Z,17.07
2023-02-15T01:38:48.447Z,17.00
2023-02-15T01:41:24.110Z,16.67
2023-02-15T01:43:54.471Z,16.93
2023-02-15T01:46:26.940Z,16.97
2023-02-15T01:49:03.321Z,17.47
2023-02-15T01:51:35.861Z,16.60
2023-02-15T01:54:08.440Z,16.63
2023-02-15T01:56:38.734Z,17.77
2023-02-15T01:59:10.230Z,17.87
2023-02-15T02:01:38.654Z,17.83
2023-02-15T02:04:13.462Z,18.17
2023-02-15T02:06:41.434Z,17.77
2023-02-15T02:09:09.602Z,17.67
2023-02-15T02:11:37.431Z,17.57
2023-02-15T02:14:05.543Z,16.83
2023-02-15T02:16:44.116Z,17.97
2023-02-15T02:19:57.740Z,18.27
2023-02-15T02:22:50.935Z,18.50
2023-02-15T02:25:40.406Z,18.00
2023-02-15T02:28:28.059Z,17.67
2023-02-15T02:31:18.536Z,18.37
2023-02-15T02:34:02.137Z,18.67
2023-02-15T02:36:37.720Z,17.50
2023-02-15T02:39:19.495Z,18.03
2023-02-15T02:41:57.767Z,17.37
2023-02-15T02:44:31.158Z,18.03
2023-02-15T02:47:04.354Z,19.47
2023-02-15T02:49:36.236Z,18.03
2023-02-15T02:52:06.627Z,18.40
2023-02-15T02:54:37.014Z,18.57
2023-02-15T02:57:10.050Z,18.73
2023-02-15T02:59:43.459Z,19.37
2023-02-15T03:02:15.640Z,18.43
2023-02-15T03:04:49.847Z,18.63
2023-02-15T03:07:22.953Z,18.67
2023-02-15T03:09:53.525Z,18.50
2023-02-15T03:12:24.169Z,18.50
2023-02-15T03:14:56.856Z,18.90
2023-02-15T03:17:27.766Z,18.17
2023-02-15T03:20:00.753Z,18.03
2023-02-15T03:22:33.001Z,18.30
2023-02-15T03:25:04.821Z,19.53
2023-02-15T03:27:37.147Z,19.27
2023-02-15T03:30:08.313Z,19.07
2023-02-15T03:32:39.314Z,18.43
2023-02-15T03:35:09.222Z,18.30
2023-02-15T03:37:41.225Z,19.33
2023-02-15T03:40:30.981Z,19.43
2023-02-15T03:43:13.135Z,18.97
2023-02-15T03:45:55.492Z,19.67
2023-02-15T03:48:27.817Z,19.33
2023-02-15T03:51:18.095Z,20.83
2023-02-15T03:53:48.524Z,20.67
2023-02-15T03:56:16.338Z,20.30
2023-02-15T03:59:00.621Z,20.63
2023-02-15T04:01:59.634Z,19.63
2023-02-15T04:04:33.248Z,19.63
2023-02-15T04:07:03.274Z,20.27
2023-02-15T04:09:48.584Z,21.03
2023-02-15T04:12:16.385Z,19.97
2023-02-15T04:15:01.972Z,20.10
2023-02-15T04:17:30.067Z,20.23
2023-02-15T04:20:15.460Z,21.20
2023-02-15T04:23:02.387Z,19.97
2023-02-15T04:25:30.221Z,19.40
2023-02-15T04:27:57.975Z,21.67
2023-02-15T04:30:27.928Z,19.63
2023-02-15T04:32:56.239Z,20.20
2023-02-15T04:35:24.324Z,20.50
2023-02-15T04:37:53.450Z,20.47
2023-02-15T04:40:21.333Z,19.93
2023-02-15T04:42:50.177Z,19.93
2023-02-15T04:45:18.325Z,19.37
2023-02-15T04:47:46.172Z,20.07
2023-02-15T04:50:14.018Z,20.33
2023-02-15T04:52:41.820Z,20.37
2023-02-15T04:55:11.068Z,20.73
2023-02-15T04:57:38.831Z,20.63
2023-02-15T05:00:09.478Z,20.77
2023-02-15T05:02:37.352Z,21.17
2023-02-15T05:05:05.545Z,21.53
2023-02-15T05:07:33.366Z,21.43
2023-02-15T05:10:01.127Z,21.17
2023-02-15T05:12:30.272Z,19.63
2023-02-15T05:14:58.026Z,20.80
2023-02-15T05:17:25.936Z,20.27
2023-02-15T05:19:53.716Z,22.33
2023-02-15T05:22:21.475Z,21.30
2023-02-15T05:25:07.001Z,19.77
2023-02-15T05:27:53.818Z,20.20
2023-02-15T05:30:22.033Z,21.30
2023-02-15T05:32:49.978Z,20.97
2023-02-15T05:35:18.591Z,21.50
2023-02-15T05:37:46.329Z,21.00
2023-02-15T05:40:14.271Z,20.57
2023-02-15T05:42:43.412Z,20.87
2023-02-15T05:45:11.412Z,21.23
2023-02-15T05:47:39.144Z,21.17
2023-02-15T05:50:08.212Z,21.93
2023-02-15T05:52:36.149Z,21.87
2023-02-15T05:55:05.159Z,22.27
2023-02-15T05:57:32.979Z,21.43
2023-02-15T06:00:02.104Z,20.60
2023-02-15T06:02:40.225Z,22.27
2023-02-15T06:05:09.419Z,20.47
2023-02-15T06:07:37.175Z,23.60
2023-02-15T06:10:05.963Z,21.70
2023-02-15T06:12:33.775Z,22.07
2023-02-15T06:15:02.969Z,20.97
2023-02-15T06:17:30.724Z,21.47
2023-02-15T06:19:58.582Z,21.87
2023-02-15T06:22:26.324Z,20.83
2023-02-15T06:24:54.109Z,21.07
2023-02-15T06:27:21.985Z,20.90
2023-02-15T06:29:50.242Z,20.43
2023-02-15T06:32:19.374Z,19.80
2023-02-15T06:34:48.757Z,20.97
2023-02-15T06:37:16.620Z,20.67
2023-02-15T06:39:45.120Z,20.97
2023-02-15T06:42:12.847Z,20.43
2023-02-15T06:44:40.615Z,20.83
2023-02-15T06:47:08.348Z,20.60
2023-02-15T06:49:37.429Z,19.97
2023-02-15T06:52:05.957Z,21.23
2023-02-15T06:54:33.718Z,21.37
2023-02-15T06:57:01.493Z,20.53
2023-02-15T06:59:29.243Z,20.53
2023-02-15T07:01:57.064Z,19.10
2023-02-15T07:04:24.896Z,21.27
2023-02-15T07:06:54.286Z,20.23
2023-02-15T07:09:22.117Z,20.17
2023-02-15T07:12:06.391Z,19.90
2023-02-15T07:14:34.205Z,19.70
2023-02-15T07:17:01.924Z,18.70
2023-02-15T07:19:29.809Z,18.93
2023-02-15T07:21:58.976Z,19.33
2023-02-15T07:24:26.885Z,17.93
2023-02-15T07:26:54.694Z,18.50
2023-02-15T07:29:22.456Z,18.03
2023-02-15T07:31:50.218Z,18.60
2023-02-15T07:34:17.986Z,18.73
2023-02-15T07:36:46.681Z,17.20
2023-02-15T07:39:15.779Z,18.73
2023-02-15T07:41:43.525Z,16.10
2023-02-15T07:44:14.314Z,16.67
2023-02-15T07:46:42.409Z,17.57
2023-02-15T07:49:10.319Z,16.57
2023-02-15T07:51:38.117Z,16.27
2023-02-15T07:54:05.874Z,17.10
2023-02-15T07:56:37.074Z,16.93
2023-02-15T07:59:06.058Z,16.93
2023-02-15T08:01:36.169Z,16.27
2023-02-15T08:04:05.037Z,17.33
2023-02-15T08:06:35.478Z,15.20
2023-02-15T08:09:05.956Z,16.27
2023-02-15T08:11:40.765Z,16.40
2023-02-15T08:14:10.583Z,15.43
2023-02-15T08:16:40.099Z,14.27
2023-02-15T08:19:09.825Z,15.07
2023-02-15T08:21:40.185Z,15.27
2023-02-15T08:24:09.607Z,14.30
2023-02-15T08:26:42.234Z,14.00
2023-02-15T08:29:11.080Z,15.53
2023-02-15T08:31:39.087Z,15.70
2023-02-15T08:34:07.474Z,14.53
2023-02-15T08:36:35.712Z,14.60
2023-02-15T08:39:05.997Z,15.73
2023-02-15T08:41:36.588Z,15.17
2023-02-15T08:44:09.077Z,14.73
2023-02-15T08:46:39.901Z,14.47
2023-02-15T08:49:08.366Z,13.43
2023-02-15T08:51:38.293Z,14.07
2023-02-15T08:54:07.599Z,13.97
2023-02-15T08:56:37.318Z,13.87
2023-02-15T08:59:07.516Z,13.27
2023-02-15T09:01:37.021Z,13.57
2023-02-15T09:04:09.557Z,13.57
2023-02-15T09:06:38.238Z,13.63
2023-02-15T09:09:06.503Z,13.53
2023-02-15T09:11:37.262Z,13.60
2023-02-15T09:14:09.057Z,13.33
2023-02-15T09:16:38.909Z,13.50
2023-02-15T09:19:07.652Z,12.87
2023-02-15T09:21:38.079Z,12.67
2023-02-15T09:24:07.922Z,13.27
2023-02-15T09:26:37.562Z,12.03
2023-02-15T09:29:06.720Z,12.90
2023-02-15T09:31:39.233Z,12.83
2023-02-15T09:34:07.059Z,12.43
2023-02-15T09:36:36.749Z,12.73
2023-02-15T09:39:09.510Z,12.20
2023-02-15T09:41:58.513Z,11.57
2023-02-15T09:44:41.472Z,12.83
2023-02-15T09:47:24.617Z,11.60
2023-02-15T09:49:59.883Z,11.30
2023-02-15T09:52:48.851Z,12.20
2023-02-15T09:55:35.840Z,11.87
2023-02-15T09:58:13.034Z,12.30
2023-02-15T10:00:52.231Z,10.90
2023-02-15T10:03:39.937Z,11.27
2023-02-15T10:06:20.825Z,11.15
2023-02-15T10:09:03.600Z,11.05
2023-02-15T10:11:43.498Z,10.85
2023-02-15T10:14:38.898Z,10.95
2023-02-15T10:17:19.436Z,10.27
2023-02-15T10:20:01.110Z,10.23
2023-02-15T10:22:37.708Z,10.98
2023-02-15T10:25:30.580Z,10.38
2023-02-15T10:28:05.883Z,11.35
2023-02-15T10:30:43.264Z,12.25
2023-02-15T10:33:26.750Z,10.85
2023-02-15T10:36:07.329Z,10.82
2023-02-15T10:38:41.420Z,11.43
2023-02-15T10:41:23.188Z,10.38
2023-02-15T10:44:06.990Z,10.93
2023-02-15T10:46:51.496Z,11.02
2023-02-15T10:49:40.063Z,10.32
2023-02-15T10:52:21.744Z,10.52
2023-02-15T10:54:59.730Z,10.25
2023-02-15T10:57:36.122Z,9.55
2023-02-15T11:00:12.283Z,10.02
2023-02-15T11:02:53.718Z,10.05
2023-02-15T11:05:32.576Z,10.00
2023-02-15T11:08:04.905Z,9.57
2023-02-15T11:10:36.050Z,9.05
2023-02-15T11:13:11.243Z,9.30
2023-02-15T11:15:43.398Z,9.95
2023-02-15T11:18:15.612Z,9.20
2023-02-15T11:20:52.160Z,9.70
2023-02-15T11:23:20.284Z,9.32
2023-02-15T11:25:54.724Z,8.98
2023-02-15T11:28:28.239Z,8.70
2023-02-15T11:30:58.803Z,8.30
2023-02-15T11:33:31.547Z,8.52
2023-02-15T11:36:08.055Z,7.97
2023-02-15T11:38:36.556Z,9.85
2023-02-15T11:41:07.798Z,8.65
2023-02-15T11:43:40.228Z,7.80
2023-02-15T11:46:12.334Z,7.93
2023-02-15T11:48:41.316Z,8.05
2023-02-15T11:51:16.933Z,8.23
2023-02-15T11:53:46.599Z,7.78
2023-02-15T11:56:18.667Z,7.75
2023-02-15T11:58:49.967Z,7.95
2023-02-15T12:01:24.089Z,8.30
2023-02-15T12:03:53.636Z,8.10
2023-02-15T12:06:26.735Z,8.50
2023-02-15T12:09:07.474Z,8.07
2023-02-15T12:11:38.497Z,8.23
2023-02-15T12:14:08.044Z,7.72
2023-02-15T12:16:43.609Z,7.47
2023-02-15T12:19:26.456Z,7.65
2023-02-15T12:21:55.700Z,8.38
2023-02-15T12:24:25.391Z,7.72
2023-02-15T12:27:03.188Z,7.07
2023-02-15T12:29:37.544Z,6.85
2023-02-15T12:32:05.901Z,6.78
2023-02-15T12:34:40.548Z,6.35
2023-02-15T12:37:17.526Z,6.60
2023-02-15T12:39:54.675Z,6.82
2023-02-15T12:42:22.848Z,7.63
2023-02-15T12:45:02.756Z,6.63
2023-02-15T12:47:32.208Z,7.35
2023-02-15T12:50:23.433Z,6.38
2023-02-15T12:52:53.447Z,6.85
2023-02-15T12:55:25.086Z,7.03
2023-02-15T12:58:08.017Z,6.57
2023-02-15T13:00:36.512Z,6.65
2023-02-15T13:03:04.879Z,7.38
2023-02-15T13:05:39.420Z,7.07
2023-02-15T13:08:16.404Z,6.63
2023-02-15T13:10:55.946Z,7.13
2023-02-15T13:13:27.715Z,7.15
2023-02-15T13:16:00.472Z,7.38
2023-02-15T13:18:33.467Z,7.03
2023-02-15T13:21:11.528Z,7.20
2023-02-15T13:23:43.525Z,7.30
2023-02-15T13:26:16.558Z,7.25
2023-02-15T13:28:48.280Z,7.75
2023-02-15T13:31:19.470Z,6.88
2023-02-15T13:33:51.411Z,7.40
2023-02-15T13:36:25.687Z,7.13
2023-02-15T13:39:20.419Z,7.63
2023-02-15T13:41:58.513Z,7.25
2023-02-15T13:44:42.065Z,7.30
2023-02-15T13:47:21.672Z,7.57
2023-02-15T13:50:06.508Z,7.10
2023-02-15T13:52:42.617Z,6.90
2023-02-15T13:55:27.862Z,7.18
2023-02-15T13:58:21.143Z,8.00
2023-02-15T14:00:58.346Z,8.32
2023-02-15T14:04:00.475Z,7.65
2023-02-15T14:06:48.163Z,7.97
2023-02-15T14:09:29.772Z,8.00
2023-02-15T14:12:14.371Z,8.38
2023-02-15T14:15:07.642Z,6.88
2023-02-15T14:17:48.139Z,7.68
2023-02-15T14:20:24.129Z,8.65
2023-02-15T14:23:03.882Z,8.40
2023-02-15T14:25:38.458Z,8.50
2023-02-15T14:28:13.447Z,7.60
2023-02-15T14:30:45.621Z,7.38
2023-02-15T14:33:34.950Z,7.72
2023-02-15T14:36:07.310Z,8.70
2023-02-15T14:38:49.052Z,9.07
2023-02-15T14:41:22.922Z,8.07
2023-02-15T14:44:02.388Z,8.60
2023-02-15T14:46:36.665Z,8.90
2023-02-15T14:49:08.773Z,8.57
2023-02-15T14:51:59.948Z,8.68
2023-02-15T14:54:57.998Z,8.65
2023-02-15T14:57:37.299Z,8.65
2023-02-15T15:00:33.630Z,9.27
2023-02-15T15:03:02.285Z,8.63
2023-02-15T15:05:35.369Z,8.05
2023-02-15T15:08:05.721Z,8.57
2023-02-15T15:10:51.672Z,8.65
2023-02-15T15:13:42.827Z,8.52
2023-02-15T15:16:31.956Z,8.23
2023-02-15T15:19:00.535Z,9.45
2023-02-15T15:22:03.835Z,9.10
2023-02-15T15:24:52.006Z,8.48
2023-02-15T15:27:51.283Z,8.63
2023-02-15T15:31:01.992Z,8.75
2023-02-15T15:34:08.810Z,9.43
2023-02-15T15:37:08.747Z,8.95
2023-02-15T15:40:13.918Z,10.18
2023-02-15T15:42:51.823Z,10.05
2023-02-15T15:45:47.678Z,9.68
2023-02-15T15:48:34.370Z,9.98
2023-02-15T15:51:06.694Z,9.73
2023-02-15T15:53:43.379Z,9.63
2023-02-15T15:56:16.977Z,10.02
2023-02-15T15:58:48.571Z,9.68
2023-02-15T16:01:17.262Z,9.35
2023-02-15T16:03:53.261Z,8.90
2023-02-15T16:06:36.161Z,9.18
2023-02-15T16:09:18.575Z,9.20
2023-02-15T16:11:48.491Z,9.27
2023-02-15T16:14:19.291Z,10.30
2023-02-15T16:16:53.553Z,9.10
2023-02-15T16:19:26.508Z,8.63
2023-02-15T16:21:55.687Z,9.05
2023-02-15T16:24:35.849Z,8.35
2023-02-15T16:27:38.309Z,8.30
2023-02-15T16:30:34.045Z,9.95
2023-02-15T16:33:08.513Z,8.98
2023-02-15T16:35:38.277Z,9.18
2023-02-15T16:38:06.733Z,10.00
2023-02-15T16:41:00.279Z,9.68
2023-02-15T16:43:30.412Z,13.23
2023-02-15T16:46:06.268Z,12.38
2023-02-15T16:48:41.204Z,10.27
2023-02-15T16:51:09.854Z,11.00
2023-02-15T16:53:39.043Z,12.45
2023-02-15T16:56:08.552Z,11.45
2023-02-15T16:58:40.320Z,11.52
2023-02-15T17:01:11.927Z,10.02
2023-02-15T17:03:41.060Z,9.32
2023-02-15T17:06:22.416Z,10.18
2023-02-15T17:08:50.504Z,9.50
2023-02-15T17:11:21.862Z,9.05
2023-02-15T17:14:21.750Z,10.48
2023-02-15T17:16:51.865Z,11.63
2023-02-15T17:19:27.157Z,17.30
2023-02-15T17:21:58.445Z,16.10
2023-02-15T17:24:40.059Z,11.40
2023-02-15T17:27:17.809Z,10.20
2023-02-15T17:29:48.752Z,9.75
2023-02-15T17:32:20.210Z,10.68
2023-02-15T17:35:00.673Z,9.90
2023-02-15T17:37:32.828Z,10.90
2023-02-15T17:40:02.987Z,10.52
2023-02-15T17:42:32.158Z,10.75
2023-02-15T17:45:00.052Z,9.57
2023-02-15T17:47:30.020Z,10.60
2023-02-15T17:49:57.949Z,10.27
2023-02-15T17:52:28.401Z,9.95
2023-02-15T17:55:13.903Z,9.43
2023-02-15T17:57:43.112Z,9.98
2023-02-15T18:00:33.391Z,10.30
2023-02-15T18:03:18.901Z,10.55
2023-02-15T18:06:04.099Z,10.32
2023-02-15T18:08:49.356Z,10.48
2023-02-15T18:11:36.945Z,10.37
2023-02-15T18:14:07.414Z,9.60
2023-02-15T18:16:37.432Z,10.03
2023-02-15T18:19:06.669Z,10.27
2023-02-15T18:21:34.581Z,10.60
2023-02-15T18:24:02.478Z,10.40
2023-02-15T18:26:31.114Z,11.80
2023-02-15T18:28:58.919Z,10.67
2023-02-15T18:31:28.207Z,12.13
2023-02-15T18:33:59.305Z,11.63
2023-02-15T18:36:30.293Z,11.87
2023-02-15T18:38:58.438Z,11.43
2023-02-15T18:41:27.012Z,10.80
2023-02-15T18:43:55.455Z,11.17
2023-02-15T18:46:23.246Z,10.77
2023-02-15T18:48:52.492Z,11.37
2023-02-15T18:51:22.902Z,12.00
2023-02-15T18:53:53.970Z,12.13
2023-02-15T18:56:24.071Z,12.37
2023-02-15T18:58:51.822Z,12.00
2023-02-15T19:01:21.656Z,10.73
2023-02-15T19:03:51.550Z,10.97
2023-02-15T19:06:23.042Z,11.17
2023-02-15T19:08:53.554Z,12.33
2023-02-15T19:11:25.069Z,12.47
2023-02-15T19:13:53.810Z,11.67
2023-02-15T19:16:31.871Z,12.27
2023-02-15T19:19:00.288Z,13.00
2023-02-15T19:21:31.832Z,12.03
2023-02-15T19:24:03.013Z,12.73
2023-02-15T19:26:44.442Z,12.17
2023-02-15T19:29:15.585Z,12.47
2023-02-15T19:31:43.555Z,12.43
2023-02-15T19:34:16.517Z,12.90
2023-02-15T19:36:48.060Z,13.30
2023-02-15T19:39:24.540Z,13.17
2023-02-15T19:41:52.975Z,14.33
2023-02-15T19:44:21.106Z,14.67
2023-02-15T19:46:49.362Z,14.23
2023-02-15T19:49:17.328Z,14.17
2023-02-15T19:51:47.522Z,13.70
2023-02-15T19:54:28.203Z,14.23
2023-02-15T19:56:56.533Z,14.27
2023-02-15T19:59:26.198Z,15.87
2023-02-15T20:01:54.604Z,18.73
2023-02-15T20:04:22.821Z,23.33
2023-02-15T20:06:53.706Z,25.03
2023-02-15T20:09:24.337Z,25.90
2023-02-15T20:11:53.176Z,20.07
2023-02-15T20:14:21.048Z,16.00
2023-02-15T20:16:48.878Z,15.90
2023-02-15T20:19:16.693Z,15.00
2023-02-15T20:21:51.681Z,14.40
2023-02-15T20:24:22.990Z,15.07
2023-02-15T20:26:50.762Z,14.90
2023-02-15T20:29:19.846Z,15.03
2023-02-15T20:31:47.770Z,16.23
2023-02-15T20:34:15.662Z,15.67
2023-02-15T20:36:43.434Z,15.40
2023-02-15T20:39:17.533Z,15.50
2023-02-15T20:41:49.333Z,15.83
2023-02-15T20:44:23.424Z,15.70
2023-02-15T20:46:53.512Z,15.53
2023-02-15T20:49:22.011Z,17.27
2023-02-15T20:51:49.759Z,16.97
2023-02-15T20:54:19.925Z,17.07
2023-02-15T20:56:49.426Z,16.80
2023-02-15T20:59:26.446Z,16.07
2023-02-15T21:01:58.957Z,17.23
2023-02-15T21:04:31.398Z,16.80
2023-02-15T21:06:59.213Z,17.33
2023-02-15T21:09:27.039Z,16.50
2023-02-15T21:11:59.057Z,16.57
2023-02-15T21:14:28.157Z,16.93
2023-02-15T21:16:56.273Z,16.67
2023-02-15T21:19:25.775Z,15.80
2023-02-15T21:21:54.574Z,17.50
2023-02-15T21:24:25.422Z,16.30
2023-02-15T21:26:54.790Z,16.87
2023-02-15T21:29:26.954Z,17.00
2023-02-15T21:31:55.004Z,17.27
2023-02-15T21:34:22.871Z,16.40
2023-02-15T21:36:51.628Z,17.03
2023-02-15T21:39:23.065Z,16.90
2023-02-15T21:42:10.232Z,17.13
2023-02-15T21:44:58.696Z,17.40
2023-02-15T21:47:46.326Z,16.70
2023-02-15T21:50:33.644Z,17.80
2023-02-15T21:53:02.016Z,17.97
2023-02-15T21:55:31.214Z,17.47
2023-02-15T21:57:59.103Z,17.00
2023-02-15T22:00:30.366Z,17.17
2023-02-15T22:03:00.900Z,17.23
2023-02-15T22:05:38.132Z,16.20
2023-02-15T22:08:12.072Z,17.30
2023-02-15T22:10:41.624Z,18.07
2023-02-15T22:13:17.146Z,18.27
2023-02-15T22:15:59.159Z,17.43
2023-02-15T22:18:32.249Z,17.23
2023-02-15T22:21:21.358Z,18.53
2023-02-15T22:23:50.492Z,17.73
2023-02-15T22:26:23.586Z,17.53
2023-02-15T22:28:51.790Z,17.67
2023-02-15T22:31:22.592Z,18.27
2023-02-15T22:33:51.102Z,17.60
2023-02-15T22:36:24.942Z,17.57
2023-02-15T22:38:53.215Z,18.80
2023-02-15T22:41:23.528Z,18.10
2023-02-15T22:43:51.846Z,17.27
2023-02-15T22:46:24.659Z,18.53
2023-02-15T22:48:52.677Z,18.23
2023-02-15T22:51:22.908Z,18.40
2023-02-15T22:53:52.404Z,18.33
2023-02-15T22:56:26.990Z,18.70
2023-02-15T22:59:00.492Z,17.93
2023-02-15T23:01:32.733Z,17.40
2023-02-15T23:04:03.482Z,18.87
2023-02-15T23:06:32.091Z,19.70
2023-02-15T23:09:00.668Z,19.17
2023-02-15T23:11:28.691Z,20.10
2023-02-15T23:13:56.416Z,19.30
2023-02-15T23:16:24.200Z,19.07
2023-02-15T23:18:53.641Z,18.90
2023-02-15T23:21:23.666Z,20.37
2023-02-15T23:23:54.523Z,19.23
2023-02-15T23:26:24.364Z,20.67
2023-02-15T23:28:53.530Z,20.27
2023-02-15T23:31:24.761Z,20.33
2023-02-15T23:33:55.194Z,19.37
2023-02-15T23:36:28.367Z,20.30
2023-02-15T23:38:57.335Z,19.37
2023-02-15T23:41:27.052Z,19.73
2023-02-15T23:43:58.535Z,19.37
2023-02-15T23:46:30.423Z,20.23
2023-02-15T23:48:59.712Z,19.90
2023-02-15T23:51:30.761Z,20.93
2023-02-15T23:53:59.175Z,20.40
2023-02-15T23:56:26.954Z,19.97
2023-02-15T23:58:54.945Z,20.50
